CFG37ML LICR-LXGB
Flight info
| Callsign | CFG37ML |
|---|---|
| Flight time | 2h 40m |
| Altitude | 37000 |
| Route | PAZZE DCT COBBA DCT ADEXI DCT PAN DCT SONAK/N0450F360 UM978 DIDON UR781 ADRIL UM978 TUC UA411 KEMIR UM978 MORJA UA411 BJA/N0445F380 UA411 BNA UA31 ALR UA411 MOS UM744 CARBO M744 GOLFO/N0446F370 T100 GOSOS |
| Aircraft | A320/M-SDE3FGHIRWY/LB1 |
Departure
| Time | 2026-04-21 00:22 |
|---|---|
| Airport | Reggio Calabria Airport (LICR) |
Arrival
| Time | 2026-04-21 03:03 |
|---|---|
| Airport | Gibraltar Airport (LXGB) |
| Time | Latitude | Longitude | Altitude | Speed | Heading |
|---|---|---|---|---|---|
| 2026-04-20 23:59 | 38.07356 | 15.65304 | 50 ft | 0 kts | 121° |
| 2026-04-21 00:12 | 38.07345 | 15.65305 | 49 ft | 4 kts | 183° |
| 2026-04-21 00:12 | 38.07298 | 15.65279 | 48 ft | 13 kts | 166° |
| 2026-04-21 00:13 | 38.07201 | 15.65340 | 48 ft | 16 kts | 151° |
| 2026-04-21 00:13 | 38.07119 | 15.65401 | 44 ft | 7 kts | 148° |
| 2026-04-21 00:13 | 38.07110 | 15.65408 | 45 ft | 0 kts | 147° |
| 2026-04-21 00:16 | 38.07108 | 15.65410 | 45 ft | 3 kts | 147° |
| 2026-04-21 00:17 | 38.07061 | 15.65449 | 40 ft | 14 kts | 147° |
| 2026-04-21 00:17 | 38.06976 | 15.65583 | 35 ft | 22 kts | 112° |
| 2026-04-21 00:17 | 38.06944 | 15.65746 | 35 ft | 13 kts | 101° |
| 2026-04-21 00:17 | 38.06922 | 15.65749 | 34 ft | 1 kts | 282° |
| 2026-04-21 00:18 | 38.06925 | 15.65745 | 34 ft | 0 kts | 298° |
| 2026-04-21 00:18 | 38.06926 | 15.65742 | 34 ft | 0 kts | 294° |
| 2026-04-21 00:22 | 38.06935 | 15.65717 | 32 ft | 25 kts | 294° |
| 2026-04-21 00:22 | 38.07116 | 15.65168 | 42 ft | 106 kts | 292° |
| 2026-04-21 00:22 | 38.07478 | 15.64078 | 187 ft | 150 kts | 294° |
| 2026-04-21 00:22 | 38.07906 | 15.62859 | 842 ft | 154 kts | 301° |
| 2026-04-21 00:23 | 38.08511 | 15.61755 | 1568 ft | 150 kts | 312° |
| 2026-04-21 00:23 | 38.09301 | 15.60924 | 2128 ft | 151 kts | 338° |
| 2026-04-21 00:23 | 38.10358 | 15.60790 | 2525 ft | 160 kts | 14° |
| 2026-04-21 00:23 | 38.11407 | 15.61471 | 2837 ft | 181 kts | 27° |
| 2026-04-21 00:24 | 38.12654 | 15.62008 | 3102 ft | 200 kts | 6° |
| 2026-04-21 00:24 | 38.14066 | 15.61887 | 3611 ft | 208 kts | 342° |
| 2026-04-21 00:24 | 38.15474 | 15.61421 | 4335 ft | 212 kts | 346° |
| 2026-04-21 00:24 | 38.16937 | 15.61070 | 5059 ft | 216 kts | 348° |
| 2026-04-21 00:25 | 38.18423 | 15.60748 | 5815 ft | 218 kts | 348° |
| 2026-04-21 00:25 | 38.19922 | 15.60419 | 6555 ft | 219 kts | 348° |
| 2026-04-21 00:25 | 38.21431 | 15.60078 | 7285 ft | 221 kts | 347° |
| 2026-04-21 00:25 | 38.22953 | 15.59728 | 7989 ft | 223 kts | 347° |
| 2026-04-21 00:26 | 38.24491 | 15.59369 | 8695 ft | 226 kts | 347° |
| 2026-04-21 00:26 | 38.26044 | 15.59004 | 9386 ft | 228 kts | 347° |
| 2026-04-21 00:26 | 38.27605 | 15.58587 | 10064 ft | 229 kts | 338° |
| 2026-04-21 00:26 | 38.28923 | 15.57501 | 10706 ft | 228 kts | 309° |
| 2026-04-21 00:27 | 38.29657 | 15.55739 | 11358 ft | 229 kts | 282° |
| 2026-04-21 00:27 | 38.29629 | 15.53616 | 11632 ft | 252 kts | 252° |
| 2026-04-21 00:27 | 38.28706 | 15.51635 | 11879 ft | 278 kts | 234° |
| 2026-04-21 00:27 | 38.27434 | 15.49596 | 12112 ft | 302 kts | 233° |
| 2026-04-21 00:28 | 38.26067 | 15.47425 | 12307 ft | 326 kts | 233° |
| 2026-04-21 00:28 | 38.24599 | 15.45093 | 12457 ft | 349 kts | 233° |
| 2026-04-21 00:28 | 38.23039 | 15.42606 | 12587 ft | 370 kts | 234° |
| 2026-04-21 00:28 | 38.21683 | 15.39761 | 12714 ft | 386 kts | 247° |
| 2026-04-21 00:29 | 38.20557 | 15.36606 | 13064 ft | 396 kts | 247° |
| 2026-04-21 00:29 | 38.19424 | 15.33394 | 13623 ft | 400 kts | 248° |
| 2026-04-21 00:29 | 38.18670 | 15.31249 | 14012 ft | 402 kts | 247° |
| 2026-04-21 00:29 | 38.17524 | 15.27992 | 14581 ft | 405 kts | 248° |
| 2026-04-21 00:30 | 38.16365 | 15.24714 | 15124 ft | 408 kts | 248° |
| 2026-04-21 00:30 | 38.15195 | 15.21411 | 15648 ft | 411 kts | 248° |
| 2026-04-21 00:30 | 38.14015 | 15.18092 | 16151 ft | 414 kts | 248° |
| 2026-04-21 00:30 | 38.12823 | 15.14747 | 16629 ft | 417 kts | 248° |
| 2026-04-21 00:31 | 38.11627 | 15.11387 | 17102 ft | 419 kts | 248° |
| 2026-04-21 00:31 | 38.10421 | 15.08006 | 17548 ft | 421 kts | 248° |
| 2026-04-21 00:31 | 38.09207 | 15.04607 | 17977 ft | 424 kts | 248° |
| 2026-04-21 00:31 | 38.07986 | 15.01189 | 18374 ft | 426 kts | 248° |
| 2026-04-21 00:32 | 38.06758 | 14.97752 | 18783 ft | 429 kts | 248° |
| 2026-04-21 00:32 | 38.05521 | 14.94299 | 19162 ft | 431 kts | 248° |
| 2026-04-21 00:32 | 38.04276 | 14.90831 | 19539 ft | 433 kts | 248° |
| 2026-04-21 00:32 | 38.03024 | 14.87345 | 19894 ft | 435 kts | 248° |
| 2026-04-21 00:33 | 38.01765 | 14.83841 | 20231 ft | 437 kts | 248° |
| 2026-04-21 00:33 | 38.00500 | 14.80324 | 20566 ft | 440 kts | 248° |
| 2026-04-21 00:33 | 37.99228 | 14.76792 | 20878 ft | 441 kts | 248° |
| 2026-04-21 00:33 | 37.97947 | 14.73245 | 21168 ft | 443 kts | 248° |
| 2026-04-21 00:34 | 37.96659 | 14.69684 | 21468 ft | 445 kts | 248° |
| 2026-04-21 00:34 | 37.95367 | 14.66108 | 21739 ft | 447 kts | 248° |
| 2026-04-21 00:34 | 37.94072 | 14.62516 | 22016 ft | 449 kts | 248° |
| 2026-04-21 00:34 | 37.92769 | 14.58908 | 22288 ft | 451 kts | 247° |
| 2026-04-21 00:35 | 37.91459 | 14.55300 | 22528 ft | 452 kts | 247° |
| 2026-04-21 00:35 | 37.90140 | 14.51678 | 22747 ft | 454 kts | 247° |
| 2026-04-21 00:35 | 37.88816 | 14.48040 | 22977 ft | 455 kts | 247° |
| 2026-04-21 00:35 | 37.87487 | 14.44397 | 23190 ft | 456 kts | 247° |
| 2026-04-21 00:36 | 37.86154 | 14.40747 | 23409 ft | 457 kts | 247° |
| 2026-04-21 00:36 | 37.84818 | 14.37089 | 23603 ft | 458 kts | 247° |
| 2026-04-21 00:36 | 37.83479 | 14.33431 | 23854 ft | 458 kts | 247° |
| 2026-04-21 00:36 | 37.82141 | 14.29777 | 24120 ft | 458 kts | 247° |
| 2026-04-21 00:37 | 37.80805 | 14.26127 | 24394 ft | 457 kts | 247° |
| 2026-04-21 00:37 | 37.79469 | 14.22484 | 24684 ft | 456 kts | 247° |
| 2026-04-21 00:37 | 37.78135 | 14.18847 | 24974 ft | 455 kts | 247° |
| 2026-04-21 00:37 | 37.76805 | 14.15226 | 25247 ft | 454 kts | 247° |
| 2026-04-21 00:38 | 37.75472 | 14.11606 | 25550 ft | 453 kts | 247° |
| 2026-04-21 00:38 | 37.74142 | 14.08000 | 25845 ft | 452 kts | 247° |
| 2026-04-21 00:38 | 37.72812 | 14.04401 | 26150 ft | 452 kts | 247° |
| 2026-04-21 00:38 | 37.71483 | 14.00812 | 26464 ft | 450 kts | 247° |
| 2026-04-21 00:39 | 37.70157 | 13.97233 | 26753 ft | 450 kts | 247° |
| 2026-04-21 00:39 | 37.68833 | 13.93661 | 27051 ft | 449 kts | 248° |
| 2026-04-21 00:39 | 37.67513 | 13.90098 | 27360 ft | 447 kts | 248° |
| 2026-04-21 00:39 | 37.66195 | 13.86543 | 27670 ft | 446 kts | 248° |
| 2026-04-21 00:40 | 37.64880 | 13.83005 | 27986 ft | 445 kts | 248° |
| 2026-04-21 00:40 | 37.63564 | 13.79471 | 28305 ft | 444 kts | 248° |
| 2026-04-21 00:40 | 37.62249 | 13.75950 | 28625 ft | 443 kts | 248° |
| 2026-04-21 00:40 | 37.60937 | 13.72438 | 28942 ft | 442 kts | 248° |
| 2026-04-21 00:41 | 37.59613 | 13.68887 | 29268 ft | 441 kts | 248° |
| 2026-04-21 00:41 | 37.58326 | 13.65440 | 29554 ft | 440 kts | 248° |
| 2026-04-21 00:41 | 37.57022 | 13.61957 | 29836 ft | 439 kts | 248° |
| 2026-04-21 00:41 | 37.55716 | 13.58475 | 30142 ft | 439 kts | 248° |
| 2026-04-21 00:42 | 37.54397 | 13.54959 | 30469 ft | 437 kts | 248° |
| 2026-04-21 00:42 | 37.53101 | 13.51503 | 30787 ft | 436 kts | 248° |
| 2026-04-21 00:42 | 37.51808 | 13.48058 | 31095 ft | 434 kts | 248° |
| 2026-04-21 00:42 | 37.50516 | 13.44625 | 31404 ft | 433 kts | 248° |
| 2026-04-21 00:43 | 37.49225 | 13.41206 | 31709 ft | 432 kts | 248° |
| 2026-04-21 00:43 | 37.47936 | 13.37796 | 32014 ft | 431 kts | 247° |
| 2026-04-21 00:43 | 37.46653 | 13.34401 | 32317 ft | 429 kts | 248° |
| 2026-04-21 00:43 | 37.45376 | 13.31014 | 32605 ft | 428 kts | 248° |
| 2026-04-21 00:44 | 37.44101 | 13.27640 | 32904 ft | 426 kts | 248° |
| 2026-04-21 00:44 | 37.42825 | 13.24274 | 33183 ft | 425 kts | 247° |
| 2026-04-21 00:44 | 37.41553 | 13.20925 | 33461 ft | 424 kts | 247° |
| 2026-04-21 00:45 | 37.39014 | 13.14243 | 33983 ft | 422 kts | 247° |
| 2026-04-21 00:45 | 37.37749 | 13.10914 | 34240 ft | 422 kts | 247° |
| 2026-04-21 00:45 | 37.36484 | 13.07588 | 34473 ft | 422 kts | 247° |
| 2026-04-21 00:45 | 37.35217 | 13.04263 | 34705 ft | 421 kts | 247° |
| 2026-04-21 00:46 | 37.33823 | 13.01025 | 34934 ft | 423 kts | 241° |
| 2026-04-21 00:46 | 37.32275 | 12.97886 | 35157 ft | 423 kts | 241° |
| 2026-04-21 00:46 | 37.30724 | 12.94753 | 35373 ft | 422 kts | 241° |
| 2026-04-21 00:46 | 37.29173 | 12.91622 | 35572 ft | 422 kts | 241° |
| 2026-04-21 00:47 | 37.27622 | 12.88495 | 35783 ft | 421 kts | 241° |
| 2026-04-21 00:47 | 37.26076 | 12.85377 | 35981 ft | 420 kts | 241° |
| 2026-04-21 00:47 | 37.24532 | 12.82264 | 36167 ft | 420 kts | 241° |
| 2026-04-21 00:47 | 37.22986 | 12.79154 | 36346 ft | 420 kts | 241° |
| 2026-04-21 00:48 | 37.21439 | 12.76046 | 36501 ft | 420 kts | 241° |
| 2026-04-21 00:48 | 37.19891 | 12.72939 | 36660 ft | 420 kts | 241° |
| 2026-04-21 00:48 | 37.18349 | 12.69839 | 36860 ft | 418 kts | 241° |
| 2026-04-21 00:48 | 37.16812 | 12.66752 | 37005 ft | 417 kts | 241° |
| 2026-04-21 00:49 | 37.13726 | 12.60577 | 37039 ft | 418 kts | 241° |
| 2026-04-21 00:49 | 37.10633 | 12.54404 | 37025 ft | 418 kts | 241° |
| 2026-04-21 00:50 | 37.07542 | 12.48229 | 37026 ft | 418 kts | 241° |
| 2026-04-21 00:50 | 37.04454 | 12.42060 | 37026 ft | 419 kts | 241° |
| 2026-04-21 00:51 | 37.01350 | 12.35886 | 37028 ft | 419 kts | 241° |
| 2026-04-21 00:51 | 36.98239 | 12.29717 | 37031 ft | 419 kts | 240° |
| 2026-04-21 00:52 | 36.95125 | 12.23547 | 37035 ft | 420 kts | 240° |
| 2026-04-21 00:52 | 36.92004 | 12.17382 | 37032 ft | 420 kts | 240° |
| 2026-04-21 00:53 | 36.88880 | 12.11209 | 37037 ft | 420 kts | 240° |
| 2026-04-21 00:53 | 36.85756 | 12.05037 | 37035 ft | 420 kts | 240° |
| 2026-04-21 00:54 | 36.82871 | 11.98720 | 37033 ft | 417 kts | 251° |
| 2026-04-21 00:54 | 36.81633 | 11.91725 | 37033 ft | 413 kts | 268° |
| 2026-04-21 00:55 | 36.81787 | 11.84563 | 37032 ft | 413 kts | 272° |
| 2026-04-21 00:55 | 36.81986 | 11.77399 | 37038 ft | 413 kts | 272° |
| 2026-04-21 00:56 | 36.82165 | 11.70227 | 37035 ft | 414 kts | 272° |
| 2026-04-21 00:56 | 36.82351 | 11.63050 | 37039 ft | 414 kts | 272° |
| 2026-04-21 00:57 | 36.82540 | 11.55868 | 37035 ft | 414 kts | 272° |
| 2026-04-21 00:57 | 36.82719 | 11.48688 | 37033 ft | 414 kts | 272° |
| 2026-04-21 00:58 | 36.82893 | 11.41504 | 37028 ft | 414 kts | 272° |
| 2026-04-21 00:58 | 36.83066 | 11.34322 | 37025 ft | 414 kts | 272° |
| 2026-04-21 00:59 | 36.83233 | 11.27136 | 37023 ft | 414 kts | 272° |
| 2026-04-21 00:59 | 36.83385 | 11.19949 | 37020 ft | 414 kts | 272° |
| 2026-04-21 01:00 | 36.83539 | 11.12766 | 37020 ft | 414 kts | 272° |
| 2026-04-21 01:00 | 36.83696 | 11.05583 | 37020 ft | 414 kts | 272° |
| 2026-04-21 01:01 | 36.83847 | 10.98406 | 37019 ft | 414 kts | 272° |
| 2026-04-21 01:01 | 36.83989 | 10.91229 | 37018 ft | 414 kts | 272° |
| 2026-04-21 01:02 | 36.84126 | 10.84049 | 37019 ft | 414 kts | 272° |
| 2026-04-21 01:02 | 36.84260 | 10.76873 | 37017 ft | 414 kts | 272° |
| 2026-04-21 01:03 | 36.84396 | 10.69688 | 37013 ft | 414 kts | 272° |
| 2026-04-21 01:03 | 36.84523 | 10.62508 | 37011 ft | 414 kts | 271° |
| 2026-04-21 01:04 | 36.84639 | 10.55331 | 37009 ft | 414 kts | 271° |
| 2026-04-21 01:04 | 36.84756 | 10.48155 | 37002 ft | 413 kts | 271° |
| 2026-04-21 01:05 | 36.84871 | 10.40976 | 37001 ft | 413 kts | 271° |
| 2026-04-21 01:05 | 36.84983 | 10.33799 | 36999 ft | 413 kts | 271° |
| 2026-04-21 01:06 | 36.85087 | 10.26620 | 36995 ft | 414 kts | 271° |
| 2026-04-21 01:06 | 36.85154 | 10.19434 | 36990 ft | 414 kts | 270° |
| 2026-04-21 01:07 | 36.85048 | 10.12252 | 36987 ft | 414 kts | 269° |
| 2026-04-21 01:07 | 36.84886 | 10.05065 | 36985 ft | 414 kts | 269° |
| 2026-04-21 01:08 | 36.84771 | 9.99090 | 36988 ft | 414 kts | 269° |
| 2026-04-21 01:08 | 36.84656 | 9.91900 | 36988 ft | 414 kts | 270° |
| 2026-04-21 01:09 | 36.84547 | 9.84709 | 36990 ft | 415 kts | 270° |
| 2026-04-21 01:09 | 36.84432 | 9.77466 | 36990 ft | 415 kts | 270° |
| 2026-04-21 01:10 | 36.84302 | 9.70268 | 36991 ft | 415 kts | 269° |
| 2026-04-21 01:10 | 36.84162 | 9.63073 | 36993 ft | 415 kts | 269° |
| 2026-04-21 01:11 | 36.84020 | 9.55868 | 36992 ft | 415 kts | 269° |
| 2026-04-21 01:11 | 36.83878 | 9.48664 | 36994 ft | 415 kts | 269° |
| 2026-04-21 01:12 | 36.83735 | 9.41459 | 36997 ft | 415 kts | 270° |
| 2026-04-21 01:12 | 36.83685 | 9.34246 | 36998 ft | 415 kts | 271° |
| 2026-04-21 01:13 | 36.83709 | 9.27042 | 37000 ft | 415 kts | 271° |
| 2026-04-21 01:13 | 36.83719 | 9.19832 | 37004 ft | 415 kts | 271° |
| 2026-04-21 01:14 | 36.83701 | 9.12628 | 37005 ft | 415 kts | 270° |
| 2026-04-21 01:14 | 36.83667 | 9.05421 | 37003 ft | 415 kts | 270° |
| 2026-04-21 01:15 | 36.83635 | 8.98215 | 37006 ft | 415 kts | 270° |
| 2026-04-21 01:15 | 36.83603 | 8.91003 | 37008 ft | 416 kts | 271° |
| 2026-04-21 01:16 | 36.83566 | 8.83783 | 37014 ft | 416 kts | 270° |
| 2026-04-21 01:16 | 36.83524 | 8.76564 | 37017 ft | 416 kts | 270° |
| 2026-04-21 01:17 | 36.83475 | 8.69343 | 37019 ft | 416 kts | 270° |
| 2026-04-21 01:17 | 36.83428 | 8.62122 | 37016 ft | 416 kts | 271° |
| 2026-04-21 01:18 | 36.83430 | 8.54897 | 37017 ft | 416 kts | 271° |
| 2026-04-21 01:18 | 36.83450 | 8.47682 | 37017 ft | 416 kts | 271° |
| 2026-04-21 01:19 | 36.83450 | 8.40465 | 37013 ft | 416 kts | 271° |
| 2026-04-21 01:19 | 36.83441 | 8.33247 | 37012 ft | 416 kts | 271° |
| 2026-04-21 01:20 | 36.83426 | 8.26025 | 37011 ft | 416 kts | 271° |
| 2026-04-21 01:20 | 36.83405 | 8.18797 | 37011 ft | 417 kts | 271° |
| 2026-04-21 01:21 | 36.83383 | 8.11570 | 37006 ft | 416 kts | 271° |
| 2026-04-21 01:21 | 36.83355 | 8.04348 | 37004 ft | 416 kts | 271° |
| 2026-04-21 01:22 | 36.83326 | 7.97126 | 37002 ft | 416 kts | 271° |
| 2026-04-21 01:22 | 36.83294 | 7.89905 | 36999 ft | 416 kts | 271° |
| 2026-04-21 01:23 | 36.83252 | 7.82681 | 36996 ft | 416 kts | 271° |
| 2026-04-21 01:23 | 36.83195 | 7.75457 | 36994 ft | 416 kts | 270° |
| 2026-04-21 01:24 | 36.83108 | 7.68235 | 36990 ft | 416 kts | 270° |
| 2026-04-21 01:24 | 36.83017 | 7.61020 | 36994 ft | 416 kts | 270° |
| 2026-04-21 01:25 | 36.82934 | 7.53801 | 36996 ft | 416 kts | 270° |
| 2026-04-21 01:25 | 36.82855 | 7.46591 | 36994 ft | 415 kts | 270° |
| 2026-04-21 01:26 | 36.82758 | 7.39378 | 36999 ft | 416 kts | 270° |
| 2026-04-21 01:26 | 36.82657 | 7.32161 | 37005 ft | 416 kts | 270° |
| 2026-04-21 01:27 | 36.82560 | 7.24952 | 37006 ft | 416 kts | 270° |
| 2026-04-21 01:27 | 36.82449 | 7.17741 | 37011 ft | 416 kts | 270° |
| 2026-04-21 01:28 | 36.82334 | 7.10529 | 37016 ft | 416 kts | 270° |
| 2026-04-21 01:28 | 36.82218 | 7.03319 | 37021 ft | 416 kts | 270° |
| 2026-04-21 01:29 | 36.82097 | 6.96108 | 37027 ft | 416 kts | 270° |
| 2026-04-21 01:29 | 36.81974 | 6.88895 | 37034 ft | 416 kts | 270° |
| 2026-04-21 01:30 | 36.81840 | 6.81677 | 37039 ft | 416 kts | 270° |
| 2026-04-21 01:30 | 36.81706 | 6.74462 | 37044 ft | 416 kts | 270° |
| 2026-04-21 01:31 | 36.81574 | 6.67243 | 37048 ft | 416 kts | 270° |
| 2026-04-21 01:31 | 36.81440 | 6.60022 | 37051 ft | 416 kts | 270° |
| 2026-04-21 01:32 | 36.81288 | 6.52801 | 37015 ft | 415 kts | 270° |
| 2026-04-21 01:32 | 36.81132 | 6.45608 | 37010 ft | 415 kts | 270° |
| 2026-04-21 01:33 | 36.80978 | 6.38409 | 37007 ft | 415 kts | 270° |
| 2026-04-21 01:33 | 36.80816 | 6.31199 | 37003 ft | 416 kts | 270° |
| 2026-04-21 01:34 | 36.80652 | 6.23982 | 36995 ft | 416 kts | 269° |
| 2026-04-21 01:34 | 36.80483 | 6.16764 | 36988 ft | 416 kts | 270° |
| 2026-04-21 01:35 | 36.80312 | 6.09544 | 36981 ft | 416 kts | 269° |
| 2026-04-21 01:35 | 36.80137 | 6.02325 | 36974 ft | 416 kts | 269° |
| 2026-04-21 01:36 | 36.79954 | 5.95054 | 36971 ft | 417 kts | 269° |
| 2026-04-21 01:36 | 36.79756 | 5.87829 | 36969 ft | 417 kts | 267° |
| 2026-04-21 01:37 | 36.79074 | 5.80642 | 36964 ft | 418 kts | 264° |
| 2026-04-21 01:37 | 36.78346 | 5.73446 | 36966 ft | 418 kts | 264° |
| 2026-04-21 01:38 | 36.77619 | 5.66257 | 36969 ft | 418 kts | 264° |
| 2026-04-21 01:38 | 36.76890 | 5.59066 | 36970 ft | 418 kts | 264° |
| 2026-04-21 01:39 | 36.76156 | 5.51871 | 36969 ft | 418 kts | 264° |
| 2026-04-21 01:39 | 36.75415 | 5.44687 | 36969 ft | 418 kts | 264° |
| 2026-04-21 01:40 | 36.74671 | 5.37504 | 36968 ft | 417 kts | 264° |
| 2026-04-21 01:40 | 36.73929 | 5.30321 | 36971 ft | 417 kts | 264° |
| 2026-04-21 01:41 | 36.73183 | 5.23141 | 36972 ft | 418 kts | 264° |
| 2026-04-21 01:41 | 36.72420 | 5.15949 | 36970 ft | 418 kts | 264° |
| 2026-04-21 01:42 | 36.71654 | 5.08758 | 36971 ft | 418 kts | 264° |
| 2026-04-21 01:42 | 36.71136 | 5.01543 | 36967 ft | 418 kts | 268° |
| 2026-04-21 01:43 | 36.70949 | 4.94315 | 36966 ft | 418 kts | 269° |
| 2026-04-21 01:43 | 36.70774 | 4.87076 | 36966 ft | 418 kts | 268° |
| 2026-04-21 01:44 | 36.70510 | 4.79849 | 36966 ft | 418 kts | 268° |
| 2026-04-21 01:44 | 36.70260 | 4.73842 | 36969 ft | 418 kts | 268° |
| 2026-04-21 01:45 | 36.69955 | 4.66614 | 36971 ft | 418 kts | 268° |
| 2026-04-21 01:45 | 36.69655 | 4.59394 | 36971 ft | 417 kts | 268° |
| 2026-04-21 01:46 | 36.69359 | 4.52167 | 36971 ft | 418 kts | 268° |
| 2026-04-21 01:46 | 36.69061 | 4.44943 | 36973 ft | 418 kts | 268° |
| 2026-04-21 01:47 | 36.68752 | 4.37705 | 36975 ft | 418 kts | 267° |
| 2026-04-21 01:47 | 36.68439 | 4.30473 | 36977 ft | 418 kts | 267° |
| 2026-04-21 01:48 | 36.68125 | 4.23236 | 36977 ft | 419 kts | 267° |
| 2026-04-21 01:48 | 36.67803 | 4.15989 | 36978 ft | 419 kts | 267° |
| 2026-04-21 01:49 | 36.67477 | 4.08741 | 36975 ft | 419 kts | 267° |
| 2026-04-21 01:49 | 36.67149 | 4.01485 | 36972 ft | 420 kts | 267° |
| 2026-04-21 01:50 | 36.66808 | 3.94231 | 36968 ft | 420 kts | 267° |
| 2026-04-21 01:50 | 36.66466 | 3.86965 | 36964 ft | 420 kts | 267° |
| 2026-04-21 01:51 | 36.66122 | 3.79696 | 36964 ft | 421 kts | 267° |
| 2026-04-21 01:51 | 36.65778 | 3.72378 | 36964 ft | 421 kts | 266° |
| 2026-04-21 01:52 | 36.65247 | 3.61473 | 36963 ft | 420 kts | 267° |
| 2026-04-21 01:53 | 36.65648 | 3.54231 | 36961 ft | 420 kts | 277° |
| 2026-04-21 01:53 | 36.65901 | 3.46980 | 36959 ft | 420 kts | 268° |
| 2026-04-21 01:54 | 36.65689 | 3.39712 | 36959 ft | 420 kts | 268° |
| 2026-04-21 01:54 | 36.65471 | 3.32441 | 36958 ft | 420 kts | 268° |
| 2026-04-21 01:55 | 36.65251 | 3.25172 | 36957 ft | 420 kts | 268° |
| 2026-04-21 01:55 | 36.65012 | 3.17895 | 36956 ft | 421 kts | 268° |
| 2026-04-21 01:56 | 36.64777 | 3.10614 | 36960 ft | 421 kts | 268° |
| 2026-04-21 01:56 | 36.64539 | 3.03337 | 36962 ft | 421 kts | 267° |
| 2026-04-21 01:57 | 36.64299 | 2.96063 | 36964 ft | 421 kts | 267° |
| 2026-04-21 01:57 | 36.64051 | 2.88786 | 36965 ft | 421 kts | 267° |
| 2026-04-21 01:58 | 36.63801 | 2.81509 | 36964 ft | 421 kts | 267° |
| 2026-04-21 01:58 | 36.63540 | 2.74227 | 36963 ft | 421 kts | 267° |
| 2026-04-21 01:59 | 36.63280 | 2.66943 | 36963 ft | 421 kts | 267° |
| 2026-04-21 01:59 | 36.63014 | 2.59664 | 36960 ft | 421 kts | 267° |
| 2026-04-21 02:00 | 36.62744 | 2.52375 | 36958 ft | 421 kts | 267° |
| 2026-04-21 02:00 | 36.62469 | 2.45085 | 36959 ft | 422 kts | 267° |
| 2026-04-21 02:01 | 36.62186 | 2.37787 | 36961 ft | 422 kts | 267° |
| 2026-04-21 02:01 | 36.61894 | 2.30485 | 36967 ft | 423 kts | 267° |
| 2026-04-21 02:02 | 36.61608 | 2.23174 | 36966 ft | 423 kts | 266° |
| 2026-04-21 02:02 | 36.61322 | 2.15866 | 36967 ft | 423 kts | 267° |
| 2026-04-21 02:03 | 36.61029 | 2.08558 | 36968 ft | 423 kts | 266° |
| 2026-04-21 02:03 | 36.60724 | 2.01247 | 36972 ft | 423 kts | 266° |
| 2026-04-21 02:04 | 36.60416 | 1.93933 | 36968 ft | 423 kts | 266° |
| 2026-04-21 02:04 | 36.60096 | 1.86615 | 36971 ft | 424 kts | 266° |
| 2026-04-21 02:05 | 36.59778 | 1.79292 | 36973 ft | 424 kts | 266° |
| 2026-04-21 02:05 | 36.59454 | 1.71961 | 36976 ft | 424 kts | 266° |
| 2026-04-21 02:06 | 36.59128 | 1.64630 | 36978 ft | 424 kts | 266° |
| 2026-04-21 02:06 | 36.58802 | 1.57300 | 36982 ft | 424 kts | 266° |
| 2026-04-21 02:07 | 36.58470 | 1.49925 | 36985 ft | 424 kts | 266° |
| 2026-04-21 02:07 | 36.58130 | 1.42649 | 36987 ft | 424 kts | 266° |
| 2026-04-21 02:08 | 36.57778 | 1.35286 | 36989 ft | 424 kts | 266° |
| 2026-04-21 02:08 | 36.57429 | 1.27971 | 36990 ft | 424 kts | 266° |
| 2026-04-21 02:09 | 36.57082 | 1.20650 | 36988 ft | 424 kts | 266° |
| 2026-04-21 02:09 | 36.56727 | 1.13332 | 36987 ft | 424 kts | 265° |
| 2026-04-21 02:10 | 36.56361 | 1.06021 | 37113 ft | 423 kts | 265° |
| 2026-04-21 02:10 | 36.56177 | 1.02382 | 37263 ft | 422 kts | 265° |
| 2026-04-21 02:10 | 36.55993 | 0.98736 | 37395 ft | 422 kts | 265° |
| 2026-04-21 02:10 | 36.55810 | 0.95095 | 37519 ft | 422 kts | 265° |
| 2026-04-21 02:11 | 36.55626 | 0.91457 | 37644 ft | 422 kts | 265° |
| 2026-04-21 02:11 | 36.55443 | 0.87819 | 37767 ft | 421 kts | 265° |
| 2026-04-21 02:11 | 36.55258 | 0.84186 | 37891 ft | 421 kts | 265° |
| 2026-04-21 02:11 | 36.55070 | 0.80552 | 38016 ft | 420 kts | 265° |
| 2026-04-21 02:12 | 36.54881 | 0.76931 | 38145 ft | 420 kts | 265° |
| 2026-04-21 02:12 | 36.54692 | 0.73310 | 38265 ft | 419 kts | 265° |
| 2026-04-21 02:12 | 36.54499 | 0.69690 | 38390 ft | 419 kts | 265° |
| 2026-04-21 02:12 | 36.54307 | 0.66078 | 38515 ft | 419 kts | 265° |
| 2026-04-21 02:13 | 36.54114 | 0.62469 | 38639 ft | 418 kts | 265° |
| 2026-04-21 02:13 | 36.53920 | 0.58861 | 38764 ft | 418 kts | 265° |
| 2026-04-21 02:13 | 36.53729 | 0.55270 | 38922 ft | 416 kts | 265° |
| 2026-04-21 02:14 | 36.53338 | 0.48063 | 38970 ft | 419 kts | 265° |
| 2026-04-21 02:14 | 36.52936 | 0.40815 | 38970 ft | 420 kts | 265° |
| 2026-04-21 02:15 | 36.52535 | 0.33612 | 38960 ft | 420 kts | 265° |
| 2026-04-21 02:15 | 36.52129 | 0.26360 | 38960 ft | 421 kts | 265° |
| 2026-04-21 02:16 | 36.51718 | 0.19105 | 38966 ft | 421 kts | 265° |
| 2026-04-21 02:16 | 36.51303 | 0.11837 | 38970 ft | 422 kts | 265° |
| 2026-04-21 02:17 | 36.50884 | 0.04563 | 38973 ft | 422 kts | 265° |
| 2026-04-21 02:17 | 36.50454 | -0.02718 | 38975 ft | 423 kts | 265° |
| 2026-04-21 02:18 | 36.50025 | -0.10003 | 38974 ft | 423 kts | 265° |
| 2026-04-21 02:18 | 36.49589 | -0.17342 | 38975 ft | 423 kts | 265° |
| 2026-04-21 02:19 | 36.49147 | -0.24637 | 38973 ft | 423 kts | 264° |
| 2026-04-21 02:19 | 36.48702 | -0.31884 | 38971 ft | 423 kts | 264° |
| 2026-04-21 02:20 | 36.48248 | -0.39179 | 38975 ft | 423 kts | 264° |
| 2026-04-21 02:20 | 36.47794 | -0.46464 | 38977 ft | 423 kts | 264° |
| 2026-04-21 02:21 | 36.47343 | -0.53747 | 38977 ft | 423 kts | 264° |
| 2026-04-21 02:21 | 36.46883 | -0.61029 | 38974 ft | 423 kts | 264° |
| 2026-04-21 02:22 | 36.46412 | -0.68308 | 38970 ft | 422 kts | 264° |
| 2026-04-21 02:22 | 36.46017 | -0.74397 | 38967 ft | 422 kts | 264° |
| 2026-04-21 02:23 | 36.45537 | -0.81657 | 38965 ft | 422 kts | 264° |
| 2026-04-21 02:23 | 36.45059 | -0.88918 | 38964 ft | 422 kts | 264° |
| 2026-04-21 02:24 | 36.44580 | -0.96180 | 38964 ft | 422 kts | 264° |
| 2026-04-21 02:24 | 36.44096 | -1.03440 | 38963 ft | 422 kts | 264° |
| 2026-04-21 02:25 | 36.43606 | -1.10659 | 38963 ft | 422 kts | 264° |
| 2026-04-21 02:25 | 36.43108 | -1.17920 | 38963 ft | 422 kts | 264° |
| 2026-04-21 02:26 | 36.42605 | -1.25183 | 38963 ft | 422 kts | 264° |
| 2026-04-21 02:26 | 36.42103 | -1.32443 | 38962 ft | 422 kts | 264° |
| 2026-04-21 02:27 | 36.41593 | -1.39708 | 38959 ft | 423 kts | 264° |
| 2026-04-21 02:27 | 36.41083 | -1.46976 | 38958 ft | 423 kts | 264° |
| 2026-04-21 02:28 | 36.40566 | -1.54247 | 38958 ft | 423 kts | 264° |
| 2026-04-21 02:28 | 36.40042 | -1.61523 | 38960 ft | 423 kts | 264° |
| 2026-04-21 02:29 | 36.39508 | -1.68788 | 38959 ft | 423 kts | 264° |
| 2026-04-21 02:29 | 36.38981 | -1.76051 | 38956 ft | 423 kts | 264° |
| 2026-04-21 02:30 | 36.38442 | -1.83314 | 38954 ft | 422 kts | 263° |
| 2026-04-21 02:30 | 36.37896 | -1.90568 | 38950 ft | 422 kts | 264° |
| 2026-04-21 02:31 | 36.37351 | -1.97824 | 38949 ft | 422 kts | 263° |
| 2026-04-21 02:31 | 36.36776 | -2.05062 | 38948 ft | 421 kts | 260° |
| 2026-04-21 02:32 | 36.35472 | -2.12134 | 38946 ft | 421 kts | 256° |
| 2026-04-21 02:32 | 36.34092 | -2.19186 | 38948 ft | 420 kts | 256° |
| 2026-04-21 02:33 | 36.32713 | -2.26236 | 38946 ft | 420 kts | 256° |
| 2026-04-21 02:33 | 36.31331 | -2.33278 | 38943 ft | 420 kts | 256° |
| 2026-04-21 02:34 | 36.29939 | -2.40317 | 38946 ft | 421 kts | 256° |
| 2026-04-21 02:34 | 36.28546 | -2.47359 | 38950 ft | 421 kts | 256° |
| 2026-04-21 02:35 | 36.27150 | -2.54395 | 38954 ft | 420 kts | 256° |
| 2026-04-21 02:35 | 36.25746 | -2.61414 | 38956 ft | 420 kts | 256° |
| 2026-04-21 02:36 | 36.24341 | -2.68427 | 38957 ft | 419 kts | 255° |
| 2026-04-21 02:36 | 36.22934 | -2.75438 | 38957 ft | 419 kts | 256° |
| 2026-04-21 02:37 | 36.21524 | -2.82433 | 38957 ft | 418 kts | 256° |
| 2026-04-21 02:37 | 36.20363 | -2.89478 | 38961 ft | 418 kts | 265° |
| 2026-04-21 02:38 | 36.19972 | -2.96660 | 38963 ft | 418 kts | 265° |
| 2026-04-21 02:38 | 36.19563 | -3.03832 | 38961 ft | 417 kts | 265° |
| 2026-04-21 02:39 | 36.19145 | -3.10991 | 38962 ft | 416 kts | 265° |
| 2026-04-21 02:39 | 36.18729 | -3.18127 | 38612 ft | 412 kts | 265° |
| 2026-04-21 02:39 | 36.18522 | -3.21664 | 37599 ft | 409 kts | 265° |
| 2026-04-21 02:40 | 36.18321 | -3.25105 | 37390 ft | 395 kts | 265° |
| 2026-04-21 02:40 | 36.18122 | -3.28466 | 36986 ft | 389 kts | 264° |
| 2026-04-21 02:40 | 36.17925 | -3.31791 | 36542 ft | 385 kts | 264° |
| 2026-04-21 02:40 | 36.17730 | -3.35079 | 36083 ft | 381 kts | 264° |
| 2026-04-21 02:41 | 36.17532 | -3.38340 | 35627 ft | 378 kts | 264° |
| 2026-04-21 02:41 | 36.17336 | -3.41571 | 35140 ft | 376 kts | 264° |
| 2026-04-21 02:41 | 36.17140 | -3.44807 | 34758 ft | 379 kts | 264° |
| 2026-04-21 02:41 | 36.16943 | -3.48075 | 34250 ft | 382 kts | 264° |
| 2026-04-21 02:42 | 36.16744 | -3.51362 | 33740 ft | 384 kts | 264° |
| 2026-04-21 02:42 | 36.16542 | -3.54669 | 33208 ft | 387 kts | 264° |
| 2026-04-21 02:42 | 36.16337 | -3.57994 | 32673 ft | 389 kts | 264° |
| 2026-04-21 02:42 | 36.16128 | -3.61337 | 32120 ft | 391 kts | 264° |
| 2026-04-21 02:43 | 36.15916 | -3.64696 | 31548 ft | 393 kts | 265° |
| 2026-04-21 02:43 | 36.15702 | -3.68072 | 30966 ft | 395 kts | 265° |
| 2026-04-21 02:43 | 36.15489 | -3.71463 | 30365 ft | 396 kts | 265° |
| 2026-04-21 02:43 | 36.15274 | -3.74874 | 29755 ft | 398 kts | 265° |
| 2026-04-21 02:44 | 36.15058 | -3.78296 | 29121 ft | 400 kts | 265° |
| 2026-04-21 02:44 | 36.14840 | -3.81743 | 28470 ft | 403 kts | 265° |
| 2026-04-21 02:44 | 36.14619 | -3.85203 | 27787 ft | 404 kts | 264° |
| 2026-04-21 02:44 | 36.14395 | -3.88659 | 27137 ft | 402 kts | 264° |
| 2026-04-21 02:45 | 36.14174 | -3.92101 | 26489 ft | 401 kts | 264° |
| 2026-04-21 02:45 | 36.13953 | -3.95523 | 25843 ft | 398 kts | 264° |
| 2026-04-21 02:45 | 36.13733 | -3.98921 | 25209 ft | 395 kts | 264° |
| 2026-04-21 02:45 | 36.13512 | -4.02296 | 24581 ft | 392 kts | 264° |
| 2026-04-21 02:46 | 36.13289 | -4.05646 | 23955 ft | 390 kts | 264° |
| 2026-04-21 02:46 | 36.13067 | -4.08974 | 23338 ft | 387 kts | 264° |
| 2026-04-21 02:46 | 36.12846 | -4.12286 | 22728 ft | 385 kts | 264° |
| 2026-04-21 02:46 | 36.12626 | -4.15573 | 22173 ft | 382 kts | 264° |
| 2026-04-21 02:47 | 36.12407 | -4.18842 | 21631 ft | 380 kts | 264° |
| 2026-04-21 02:47 | 36.12194 | -4.22086 | 21104 ft | 377 kts | 264° |
| 2026-04-21 02:47 | 36.11982 | -4.25298 | 20595 ft | 373 kts | 264° |
| 2026-04-21 02:47 | 36.11768 | -4.28485 | 20109 ft | 370 kts | 264° |
| 2026-04-21 02:48 | 36.11555 | -4.31637 | 19629 ft | 366 kts | 264° |
| 2026-04-21 02:48 | 36.11343 | -4.34758 | 19163 ft | 363 kts | 264° |
| 2026-04-21 02:48 | 36.11129 | -4.37849 | 18697 ft | 359 kts | 264° |
| 2026-04-21 02:48 | 36.10914 | -4.40918 | 18217 ft | 357 kts | 264° |
| 2026-04-21 02:49 | 36.10703 | -4.43968 | 17744 ft | 355 kts | 264° |
| 2026-04-21 02:49 | 36.10491 | -4.46996 | 17253 ft | 353 kts | 264° |
| 2026-04-21 02:49 | 36.10279 | -4.50005 | 16767 ft | 350 kts | 264° |
| 2026-04-21 02:49 | 36.10068 | -4.52998 | 16264 ft | 349 kts | 264° |
| 2026-04-21 02:50 | 36.09860 | -4.55979 | 15766 ft | 347 kts | 264° |
| 2026-04-21 02:50 | 36.09653 | -4.58948 | 15253 ft | 346 kts | 264° |
| 2026-04-21 02:50 | 36.09445 | -4.61910 | 14736 ft | 345 kts | 264° |
| 2026-04-21 02:50 | 36.09233 | -4.64900 | 14205 ft | 344 kts | 264° |
| 2026-04-21 02:51 | 36.09024 | -4.67841 | 13682 ft | 343 kts | 264° |
| 2026-04-21 02:51 | 36.08810 | -4.70772 | 13149 ft | 342 kts | 262° |
| 2026-04-21 02:51 | 36.08326 | -4.73625 | 12612 ft | 339 kts | 251° |
| 2026-04-21 02:51 | 36.07498 | -4.76342 | 12050 ft | 337 kts | 248° |
| 2026-04-21 02:52 | 36.06642 | -4.79035 | 11490 ft | 336 kts | 248° |
| 2026-04-21 02:52 | 36.05789 | -4.81722 | 10919 ft | 335 kts | 248° |
| 2026-04-21 02:52 | 36.04946 | -4.84376 | 10621 ft | 326 kts | 248° |
| 2026-04-21 02:52 | 36.04136 | -4.86933 | 10494 ft | 313 kts | 248° |
| 2026-04-21 02:53 | 36.03362 | -4.89384 | 10369 ft | 300 kts | 248° |
| 2026-04-21 02:53 | 36.02615 | -4.91754 | 10154 ft | 292 kts | 248° |
| 2026-04-21 02:53 | 36.01882 | -4.94069 | 9834 ft | 288 kts | 248° |
| 2026-04-21 02:53 | 36.01153 | -4.96363 | 9437 ft | 287 kts | 248° |
| 2026-04-21 02:54 | 36.00427 | -4.98658 | 9023 ft | 287 kts | 250° |
| 2026-04-21 02:54 | 36.00010 | -5.01060 | 8603 ft | 287 kts | 265° |
| 2026-04-21 02:54 | 35.99990 | -5.03521 | 8176 ft | 287 kts | 269° |
| 2026-04-21 02:54 | 35.99997 | -5.05975 | 7757 ft | 285 kts | 269° |
| 2026-04-21 02:55 | 36.00001 | -5.08420 | 7341 ft | 284 kts | 269° |
| 2026-04-21 02:55 | 36.00004 | -5.10852 | 6919 ft | 282 kts | 269° |
| 2026-04-21 02:55 | 36.00006 | -5.13273 | 6487 ft | 281 kts | 269° |
| 2026-04-21 02:55 | 36.00005 | -5.15683 | 6054 ft | 280 kts | 269° |
| 2026-04-21 02:56 | 36.00001 | -5.18082 | 5662 ft | 278 kts | 269° |
| 2026-04-21 02:56 | 36.00000 | -5.22794 | 4914 ft | 271 kts | 269° |
| 2026-04-21 02:56 | 36.00009 | -5.25114 | 4541 ft | 269 kts | 269° |
| 2026-04-21 02:57 | 36.00016 | -5.27394 | 4257 ft | 262 kts | 269° |
| 2026-04-21 02:57 | 36.00018 | -5.29613 | 4006 ft | 255 kts | 269° |
| 2026-04-21 02:57 | 36.00016 | -5.31772 | 3758 ft | 248 kts | 269° |
| 2026-04-21 02:57 | 36.00028 | -5.33881 | 3507 ft | 243 kts | 271° |
| 2026-04-21 02:58 | 36.00024 | -5.35946 | 3251 ft | 239 kts | 268° |
| 2026-04-21 02:58 | 36.00023 | -5.37968 | 3045 ft | 232 kts | 279° |
| 2026-04-21 02:58 | 36.00667 | -5.39624 | 3096 ft | 208 kts | 322° |
| 2026-04-21 02:58 | 36.01897 | -5.40166 | 3239 ft | 173 kts | 2° |
| 2026-04-21 02:59 | 36.03028 | -5.40237 | 3210 ft | 159 kts | 359° |
| 2026-04-21 02:59 | 36.04079 | -5.40303 | 3092 ft | 149 kts | 1° |
| 2026-04-21 02:59 | 36.05103 | -5.40340 | 2939 ft | 145 kts | 2° |
| 2026-04-21 02:59 | 36.06104 | -5.40354 | 2799 ft | 142 kts | 1° |
| 2026-04-21 03:00 | 36.07085 | -5.40423 | 2534 ft | 141 kts | 359° |
| 2026-04-21 03:00 | 36.08060 | -5.40502 | 2285 ft | 140 kts | 359° |
| 2026-04-21 03:00 | 36.09026 | -5.40579 | 2034 ft | 139 kts | 359° |
| 2026-04-21 03:00 | 36.09983 | -5.40652 | 1777 ft | 136 kts | 359° |
| 2026-04-21 03:01 | 36.10931 | -5.40696 | 1464 ft | 136 kts | 1° |
| 2026-04-21 03:01 | 36.11873 | -5.40715 | 1154 ft | 135 kts | 1° |
| 2026-04-21 03:01 | 36.12803 | -5.40729 | 1008 ft | 134 kts | 1° |
| 2026-04-21 03:01 | 36.13746 | -5.40644 | 884 ft | 134 kts | 17° |
| 2026-04-21 03:02 | 36.14524 | -5.40080 | 809 ft | 130 kts | 47° |
| 2026-04-21 03:02 | 36.14908 | -5.39474 | 672 ft | 135 kts | 60° |
| 2026-04-21 03:02 | 36.15027 | -5.38331 | 500 ft | 138 kts | 98° |
| 2026-04-21 03:02 | 36.15027 | -5.37153 | 303 ft | 139 kts | 81° |
| 2026-04-21 03:03 | 36.15087 | -5.36004 | 67 ft | 131 kts | 87° |
| 2026-04-21 03:03 | 36.15117 | -5.35002 | 19 ft | 88 kts | 87° |
| 2026-04-21 03:03 | 36.15132 | -5.34554 | 17 ft | 36 kts | 88° |
| 2026-04-21 03:03 | 36.15142 | -5.34267 | 16 ft | 19 kts | 81° |
| 2026-04-21 03:04 | 36.15183 | -5.34233 | 16 ft | 4 kts | 3° |
| 2026-04-21 03:04 | 36.15200 | -5.34233 | 17 ft | 1 kts | 359° |
| 2026-04-21 03:04 | 36.15221 | -5.34236 | 18 ft | 7 kts | 345° |
| 2026-04-21 03:04 | 36.15238 | -5.34320 | 18 ft | 15 kts | 267° |
| 2026-04-21 03:05 | 36.15233 | -5.34448 | 18 ft | 14 kts | 267° |
| 2026-04-21 03:05 | 36.15232 | -5.34479 | 18 ft | 0 kts | 267° |
| 2026-04-21 03:08 | 36.15232 | -5.34519 | 18 ft | 7 kts | 281° |
| 2026-04-21 03:08 | 36.15256 | -5.34567 | 19 ft | 7 kts | 321° |
| 2026-04-21 03:09 | 36.15297 | -5.34584 | 18 ft | 7 kts | 356° |
| 2026-04-21 03:09 | 36.15307 | -5.34585 | 18 ft | 0 kts | 356° |